sensor_id;sensor_type;location;lat;lon;timestamp;P1;durP1;ratioP1;P2;durP2;ratioP2
73893;SDS011;62699;50.534;12.784;2023-04-16T00:01:38;26.17;;;15.77;;
73893;SDS011;62699;50.534;12.784;2023-04-16T00:06:39;27.15;;;17.23;;
73893;SDS011;62699;50.534;12.784;2023-04-16T00:11:39;26.50;;;16.23;;
73893;SDS011;62699;50.534;12.784;2023-04-16T00:16:40;24.02;;;15.18;;
73893;SDS011;62699;50.534;12.784;2023-04-16T00:21:40;24.77;;;15.68;;
73893;SDS011;62699;50.534;12.784;2023-04-16T00:26:40;29.85;;;17.17;;
73893;SDS011;62699;50.534;12.784;2023-04-16T00:31:43;25.75;;;15.35;;
73893;SDS011;62699;50.534;12.784;2023-04-16T00:36:43;25.45;;;15.80;;
73893;SDS011;62699;50.534;12.784;2023-04-16T00:41:44;26.85;;;15.45;;
73893;SDS011;62699;50.534;12.784;2023-04-16T00:46:45;22.30;;;13.95;;
73893;SDS011;62699;50.534;12.784;2023-04-16T00:51:45;27.00;;;15.68;;
73893;SDS011;62699;50.534;12.784;2023-04-16T00:56:46;25.25;;;15.02;;
73893;SDS011;62699;50.534;12.784;2023-04-16T01:01:46;24.20;;;15.73;;
73893;SDS011;62699;50.534;12.784;2023-04-16T01:06:47;22.25;;;13.60;;
73893;SDS011;62699;50.534;12.784;2023-04-16T01:11:47;21.17;;;13.40;;
73893;SDS011;62699;50.534;12.784;2023-04-16T01:16:47;18.83;;;12.00;;
73893;SDS011;62699;50.534;12.784;2023-04-16T01:21:48;15.73;;;10.27;;
73893;SDS011;62699;50.534;12.784;2023-04-16T01:26:48;12.40;;;8.15;;
73893;SDS011;62699;50.534;12.784;2023-04-16T01:31:49;13.60;;;8.70;;
73893;SDS011;62699;50.534;12.784;2023-04-16T01:36:50;13.18;;;8.02;;
73893;SDS011;62699;50.534;12.784;2023-04-16T01:41:50;11.27;;;7.03;;
73893;SDS011;62699;50.534;12.784;2023-04-16T01:46:51;10.98;;;6.82;;
73893;SDS011;62699;50.534;12.784;2023-04-16T01:51:51;11.13;;;6.32;;
73893;SDS011;62699;50.534;12.784;2023-04-16T01:56:51;8.60;;;5.32;;
73893;SDS011;62699;50.534;12.784;2023-04-16T02:01:52;8.95;;;5.63;;
73893;SDS011;62699;50.534;12.784;2023-04-16T02:06:52;8.85;;;5.20;;
73893;SDS011;62699;50.534;12.784;2023-04-16T02:11:53;9.75;;;6.03;;
73893;SDS011;62699;50.534;12.784;2023-04-16T02:16:53;9.05;;;5.80;;
73893;SDS011;62699;50.534;12.784;2023-04-16T02:21:53;11.10;;;6.65;;
73893;SDS011;62699;50.534;12.784;2023-04-16T02:26:54;8.60;;;5.63;;
73893;SDS011;62699;50.534;12.784;2023-04-16T02:31:54;8.73;;;5.72;;
73893;SDS011;62699;50.534;12.784;2023-04-16T02:36:55;8.93;;;5.90;;
73893;SDS011;62699;50.534;12.784;2023-04-16T02:41:57;9.27;;;6.18;;
73893;SDS011;62699;50.534;12.784;2023-04-16T02:46:58;8.77;;;5.90;;
73893;SDS011;62699;50.534;12.784;2023-04-16T02:51:58;9.50;;;5.45;;
73893;SDS011;62699;50.534;12.784;2023-04-16T02:56:58;8.80;;;5.47;;
73893;SDS011;62699;50.534;12.784;2023-04-16T03:01:58;8.43;;;5.35;;
73893;SDS011;62699;50.534;12.784;2023-04-16T03:06:59;7.86;;;4.78;;
73893;SDS011;62699;50.534;12.784;2023-04-16T03:11:59;8.85;;;5.30;;
73893;SDS011;62699;50.534;12.784;2023-04-16T03:17:01;9.20;;;5.72;;
73893;SDS011;62699;50.534;12.784;2023-04-16T03:22:01;9.08;;;5.60;;
73893;SDS011;62699;50.534;12.784;2023-04-16T03:27:01;9.38;;;5.95;;
73893;SDS011;62699;50.534;12.784;2023-04-16T03:32:02;9.13;;;5.40;;
73893;SDS011;62699;50.534;12.784;2023-04-16T03:37:03;7.47;;;4.78;;
73893;SDS011;62699;50.534;12.784;2023-04-16T03:42:05;8.48;;;5.05;;
73893;SDS011;62699;50.534;12.784;2023-04-16T03:47:05;7.47;;;4.60;;
73893;SDS011;62699;50.534;12.784;2023-04-16T03:52:05;9.18;;;5.10;;
73893;SDS011;62699;50.534;12.784;2023-04-16T03:57:05;7.25;;;4.43;;
73893;SDS011;62699;50.534;12.784;2023-04-16T04:02:06;7.07;;;4.53;;
73893;SDS011;62699;50.534;12.784;2023-04-16T04:07:06;7.90;;;4.85;;
73893;SDS011;62699;50.534;12.784;2023-04-16T04:12:06;9.45;;;5.45;;
73893;SDS011;62699;50.534;12.784;2023-04-16T04:17:09;9.55;;;5.30;;
73893;SDS011;62699;50.534;12.784;2023-04-16T04:22:09;7.85;;;4.90;;
73893;SDS011;62699;50.534;12.784;2023-04-16T04:27:09;7.35;;;4.63;;
73893;SDS011;62699;50.534;12.784;2023-04-16T04:32:10;8.06;;;4.68;;
73893;SDS011;62699;50.534;12.784;2023-04-16T04:37:10;8.02;;;4.88;;
73893;SDS011;62699;50.534;12.784;2023-04-16T04:42:11;8.25;;;4.78;;
73893;SDS011;62699;50.534;12.784;2023-04-16T04:47:11;7.85;;;5.07;;
73893;SDS011;62699;50.534;12.784;2023-04-16T04:52:12;9.35;;;6.15;;
73893;SDS011;62699;50.534;12.784;2023-04-16T04:57:12;9.32;;;4.80;;
73893;SDS011;62699;50.534;12.784;2023-04-16T05:02:13;8.60;;;5.13;;
73893;SDS011;62699;50.534;12.784;2023-04-16T05:07:14;9.77;;;5.57;;
73893;SDS011;62699;50.534;12.784;2023-04-16T05:12:15;8.20;;;5.38;;
73893;SDS011;62699;50.534;12.784;2023-04-16T05:17:15;7.20;;;4.80;;
73893;SDS011;62699;50.534;12.784;2023-04-16T05:22:17;8.73;;;5.30;;
73893;SDS011;62699;50.534;12.784;2023-04-16T05:27:18;9.02;;;5.03;;
73893;SDS011;62699;50.534;12.784;2023-04-16T05:32:19;8.52;;;5.03;;
73893;SDS011;62699;50.534;12.784;2023-04-16T05:37:19;8.68;;;5.65;;
73893;SDS011;62699;50.534;12.784;2023-04-16T05:42:19;9.13;;;5.22;;
73893;SDS011;62699;50.534;12.784;2023-04-16T05:47:19;7.18;;;4.65;;
73893;SDS011;62699;50.534;12.784;2023-04-16T05:52:20;9.32;;;5.07;;
73893;SDS011;62699;50.534;12.784;2023-04-16T05:57:22;10.07;;;4.90;;
73893;SDS011;62699;50.534;12.784;2023-04-16T06:02:22;6.28;;;4.10;;
73893;SDS011;62699;50.534;12.784;2023-04-16T06:07:22;7.53;;;4.40;;
73893;SDS011;62699;50.534;12.784;2023-04-16T06:12:23;6.63;;;3.47;;
73893;SDS011;62699;50.534;12.784;2023-04-16T06:17:23;5.65;;;3.13;;
73893;SDS011;62699;50.534;12.784;2023-04-16T06:22:23;5.07;;;2.90;;
73893;SDS011;62699;50.534;12.784;2023-04-16T06:27:24;4.10;;;2.40;;
73893;SDS011;62699;50.534;12.784;2023-04-16T06:32:24;3.03;;;2.25;;
73893;SDS011;62699;50.534;12.784;2023-04-16T06:37:26;4.70;;;2.50;;
73893;SDS011;62699;50.534;12.784;2023-04-16T06:42:26;3.15;;;2.25;;
73893;SDS011;62699;50.534;12.784;2023-04-16T06:47:27;3.60;;;2.22;;
73893;SDS011;62699;50.534;12.784;2023-04-16T06:52:27;3.53;;;2.30;;
73893;SDS011;62699;50.534;12.784;2023-04-16T06:57:28;4.38;;;2.58;;
73893;SDS011;62699;50.534;12.784;2023-04-16T07:02:30;4.93;;;2.90;;
73893;SDS011;62699;50.534;12.784;2023-04-16T07:07:31;6.53;;;3.63;;
73893;SDS011;62699;50.534;12.784;2023-04-16T07:12:31;5.55;;;3.15;;
73893;SDS011;62699;50.534;12.784;2023-04-16T07:17:32;7.00;;;3.60;;
73893;SDS011;62699;50.534;12.784;2023-04-16T07:22:32;5.25;;;3.22;;
73893;SDS011;62699;50.534;12.784;2023-04-16T07:27:32;7.43;;;4.40;;
73893;SDS011;62699;50.534;12.784;2023-04-16T07:32:32;8.68;;;4.60;;
73893;SDS011;62699;50.534;12.784;2023-04-16T07:37:33;7.50;;;4.70;;
73893;SDS011;62699;50.534;12.784;2023-04-16T07:42:33;7.22;;;4.63;;
73893;SDS011;62699;50.534;12.784;2023-04-16T07:47:34;8.48;;;5.05;;
73893;SDS011;62699;50.534;12.784;2023-04-16T07:52:34;8.38;;;5.40;;
73893;SDS011;62699;50.534;12.784;2023-04-16T07:57:34;10.93;;;5.75;;
73893;SDS011;62699;50.534;12.784;2023-04-16T08:02:35;8.52;;;5.10;;
73893;SDS011;62699;50.534;12.784;2023-04-16T08:07:35;9.95;;;5.82;;
73893;SDS011;62699;50.534;12.784;2023-04-16T08:12:36;8.18;;;4.88;;
73893;SDS011;62699;50.534;12.784;2023-04-16T08:17:36;8.88;;;4.95;;
73893;SDS011;62699;50.534;12.784;2023-04-16T08:22:37;8.65;;;5.32;;
73893;SDS011;62699;50.534;12.784;2023-04-16T08:27:37;9.00;;;5.93;;
73893;SDS011;62699;50.534;12.784;2023-04-16T08:32:39;11.50;;;5.90;;
73893;SDS011;62699;50.534;12.784;2023-04-16T08:37:39;9.77;;;6.03;;
73893;SDS011;62699;50.534;12.784;2023-04-16T08:42:44;11.15;;;6.50;;
73893;SDS011;62699;50.534;12.784;2023-04-16T08:47:54;9.65;;;6.18;;
73893;SDS011;62699;50.534;12.784;2023-04-16T08:52:57;9.88;;;6.47;;
73893;SDS011;62699;50.534;12.784;2023-04-16T08:58:13;10.37;;;6.73;;
73893;SDS011;62699;50.534;12.784;2023-04-16T09:03:14;10.73;;;6.05;;
73893;SDS011;62699;50.534;12.784;2023-04-16T09:08:15;9.82;;;5.75;;
73893;SDS011;62699;50.534;12.784;2023-04-16T09:13:16;8.85;;;5.13;;
73893;SDS011;62699;50.534;12.784;2023-04-16T09:18:19;9.73;;;5.80;;
73893;SDS011;62699;50.534;12.784;2023-04-16T09:23:20;9.23;;;5.18;;
73893;SDS011;62699;50.534;12.784;2023-04-16T09:34:03;8.90;;;5.38;;
73893;SDS011;62699;50.534;12.784;2023-04-16T09:39:04;9.50;;;5.40;;
73893;SDS011;62699;50.534;12.784;2023-04-16T09:44:05;9.73;;;5.60;;
73893;SDS011;62699;50.534;12.784;2023-04-16T09:54:16;9.63;;;5.82;;
73893;SDS011;62699;50.534;12.784;2023-04-16T09:59:20;13.43;;;9.43;;
73893;SDS011;62699;50.534;12.784;2023-04-16T10:04:21;11.27;;;5.10;;
73893;SDS011;62699;50.534;12.784;2023-04-16T10:09:21;6.28;;;3.83;;
73893;SDS011;62699;50.534;12.784;2023-04-16T10:14:22;7.35;;;3.60;;
73893;SDS011;62699;50.534;12.784;2023-04-16T10:19:23;7.05;;;3.45;;
73893;SDS011;62699;50.534;12.784;2023-04-16T10:24:24;4.88;;;2.83;;
73893;SDS011;62699;50.534;12.784;2023-04-16T10:29:25;5.13;;;2.63;;
73893;SDS011;62699;50.534;12.784;2023-04-16T10:34:27;7.03;;;3.88;;
73893;SDS011;62699;50.534;12.784;2023-04-16T10:39:29;6.30;;;3.75;;
73893;SDS011;62699;50.534;12.784;2023-04-16T10:44:30;5.68;;;3.17;;
73893;SDS011;62699;50.534;12.784;2023-04-16T10:49:31;6.45;;;3.28;;
73893;SDS011;62699;50.534;12.784;2023-04-16T10:54:34;8.27;;;3.60;;
73893;SDS011;62699;50.534;12.784;2023-04-16T10:59:35;5.90;;;3.38;;
73893;SDS011;62699;50.534;12.784;2023-04-16T11:04:37;5.07;;;3.22;;
73893;SDS011;62699;50.534;12.784;2023-04-16T11:14:57;6.80;;;3.53;;
73893;SDS011;62699;50.534;12.784;2023-04-16T11:19:58;6.55;;;3.80;;
73893;SDS011;62699;50.534;12.784;2023-04-16T11:24:59;7.35;;;4.10;;
73893;SDS011;62699;50.534;12.784;2023-04-16T11:30:00;7.07;;;3.80;;
73893;SDS011;62699;50.534;12.784;2023-04-16T11:35:11;5.85;;;3.38;;
73893;SDS011;62699;50.534;12.784;2023-04-16T11:40:13;5.20;;;3.15;;
73893;SDS011;62699;50.534;12.784;2023-04-16T11:45:13;5.65;;;3.25;;
73893;SDS011;62699;50.534;12.784;2023-04-16T11:50:18;5.55;;;2.80;;
73893;SDS011;62699;50.534;12.784;2023-04-16T11:55:19;5.30;;;2.90;;
73893;SDS011;62699;50.534;12.784;2023-04-16T12:00:20;7.50;;;3.65;;
73893;SDS011;62699;50.534;12.784;2023-04-16T12:05:32;6.97;;;4.18;;
73893;SDS011;62699;50.534;12.784;2023-04-16T12:10:35;7.70;;;4.18;;
73893;SDS011;62699;50.534;12.784;2023-04-16T12:15:43;8.10;;;4.65;;
73893;SDS011;62699;50.534;12.784;2023-04-16T12:20:44;7.07;;;4.13;;
73893;SDS011;62699;50.534;12.784;2023-04-16T12:25:45;7.30;;;3.97;;
73893;SDS011;62699;50.534;12.784;2023-04-16T12:30:48;7.00;;;3.92;;
73893;SDS011;62699;50.534;12.784;2023-04-16T12:35:50;7.35;;;3.75;;
73893;SDS011;62699;50.534;12.784;2023-04-16T12:40:50;7.10;;;3.75;;
73893;SDS011;62699;50.534;12.784;2023-04-16T12:45:51;7.43;;;3.90;;
73893;SDS011;62699;50.534;12.784;2023-04-16T12:50:52;7.57;;;3.85;;
73893;SDS011;62699;50.534;12.784;2023-04-16T12:55:53;6.53;;;3.60;;
73893;SDS011;62699;50.534;12.784;2023-04-16T13:00:53;7.03;;;3.95;;
73893;SDS011;62699;50.534;12.784;2023-04-16T13:05:54;7.13;;;3.92;;
73893;SDS011;62699;50.534;12.784;2023-04-16T13:10:55;7.63;;;4.45;;
73893;SDS011;62699;50.534;12.784;2023-04-16T13:15:56;8.20;;;4.80;;
73893;SDS011;62699;50.534;12.784;2023-04-16T13:20:56;7.75;;;4.45;;
73893;SDS011;62699;50.534;12.784;2023-04-16T13:25:57;9.98;;;6.35;;
73893;SDS011;62699;50.534;12.784;2023-04-16T13:30:57;9.85;;;5.50;;
73893;SDS011;62699;50.534;12.784;2023-04-16T13:35:58;10.57;;;5.93;;
73893;SDS011;62699;50.534;12.784;2023-04-16T13:40:58;11.95;;;6.85;;
73893;SDS011;62699;50.534;12.784;2023-04-16T13:45:58;9.50;;;5.60;;
73893;SDS011;62699;50.534;12.784;2023-04-16T13:51:00;12.95;;;6.90;;
73893;SDS011;62699;50.534;12.784;2023-04-16T13:56:00;10.45;;;5.75;;
73893;SDS011;62699;50.534;12.784;2023-04-16T14:01:02;12.23;;;7.03;;
73893;SDS011;62699;50.534;12.784;2023-04-16T14:06:03;10.10;;;6.07;;
73893;SDS011;62699;50.534;12.784;2023-04-16T14:11:03;9.90;;;5.75;;
73893;SDS011;62699;50.534;12.784;2023-04-16T14:16:05;8.80;;;5.22;;
73893;SDS011;62699;50.534;12.784;2023-04-16T14:21:05;10.32;;;5.05;;
73893;SDS011;62699;50.534;12.784;2023-04-16T14:26:05;8.32;;;4.90;;
73893;SDS011;62699;50.534;12.784;2023-04-16T14:31:06;8.95;;;5.03;;
73893;SDS011;62699;50.534;12.784;2023-04-16T14:36:06;8.40;;;4.90;;
73893;SDS011;62699;50.534;12.784;2023-04-16T14:41:06;7.80;;;4.20;;
73893;SDS011;62699;50.534;12.784;2023-04-16T14:46:07;8.60;;;4.32;;
73893;SDS011;62699;50.534;12.784;2023-04-16T14:51:08;8.55;;;4.55;;
73893;SDS011;62699;50.534;12.784;2023-04-16T14:56:09;7.20;;;4.22;;
73893;SDS011;62699;50.534;12.784;2023-04-16T15:29:43;6.03;;;3.60;;
73893;SDS011;62699;50.534;12.784;2023-04-16T15:34:45;8.43;;;3.35;;
73893;SDS011;62699;50.534;12.784;2023-04-16T15:39:45;6.70;;;3.47;;
73893;SDS011;62699;50.534;12.784;2023-04-16T15:44:46;6.65;;;3.03;;
73893;SDS011;62699;50.534;12.784;2023-04-16T15:49:46;7.75;;;3.80;;
73893;SDS011;62699;50.534;12.784;2023-04-16T15:54:46;4.83;;;2.90;;
73893;SDS011;62699;50.534;12.784;2023-04-16T15:59:49;5.63;;;2.78;;
73893;SDS011;62699;50.534;12.784;2023-04-16T16:04:49;5.93;;;3.15;;
73893;SDS011;62699;50.534;12.784;2023-04-16T16:09:51;5.93;;;3.38;;
73893;SDS011;62699;50.534;12.784;2023-04-16T16:14:52;6.35;;;3.25;;
73893;SDS011;62699;50.534;12.784;2023-04-16T16:19:52;6.38;;;3.80;;
73893;SDS011;62699;50.534;12.784;2023-04-16T16:24:55;6.95;;;3.75;;
73893;SDS011;62699;50.534;12.784;2023-04-16T16:29:57;6.07;;;3.38;;
73893;SDS011;62699;50.534;12.784;2023-04-16T16:35:01;5.95;;;3.35;;
73893;SDS011;62699;50.534;12.784;2023-04-16T16:40:02;6.60;;;3.20;;
73893;SDS011;62699;50.534;12.784;2023-04-16T16:45:07;6.88;;;3.83;;
73893;SDS011;62699;50.534;12.784;2023-04-16T16:50:08;4.90;;;2.50;;
73893;SDS011;62699;50.534;12.784;2023-04-16T16:55:10;5.00;;;2.95;;
73893;SDS011;62699;50.534;12.784;2023-04-16T17:00:11;5.30;;;2.88;;
73893;SDS011;62699;50.534;12.784;2023-04-16T17:05:15;5.22;;;3.15;;
73893;SDS011;62699;50.534;12.784;2023-04-16T17:10:18;7.50;;;2.80;;
73893;SDS011;62699;50.534;12.784;2023-04-16T17:15:21;7.57;;;3.03;;
73893;SDS011;62699;50.534;12.784;2023-04-16T17:20:21;4.32;;;2.60;;
73893;SDS011;62699;50.534;12.784;2023-04-16T17:25:22;5.28;;;3.05;;
73893;SDS011;62699;50.534;12.784;2023-04-16T17:30:22;4.57;;;2.72;;
73893;SDS011;62699;50.534;12.784;2023-04-16T17:35:24;5.18;;;3.00;;
73893;SDS011;62699;50.534;12.784;2023-04-16T17:40:26;9.20;;;5.07;;
73893;SDS011;62699;50.534;12.784;2023-04-16T17:45:26;7.70;;;4.30;;
73893;SDS011;62699;50.534;12.784;2023-04-16T17:50:26;6.63;;;4.00;;
73893;SDS011;62699;50.534;12.784;2023-04-16T17:55:26;7.05;;;3.78;;
73893;SDS011;62699;50.534;12.784;2023-04-16T18:00:27;12.25;;;6.80;;
73893;SDS011;62699;50.534;12.784;2023-04-16T18:05:27;7.23;;;4.20;;
73893;SDS011;62699;50.534;12.784;2023-04-16T18:10:29;6.95;;;4.13;;
73893;SDS011;62699;50.534;12.784;2023-04-16T18:15:34;5.13;;;3.05;;
73893;SDS011;62699;50.534;12.784;2023-04-16T18:20:38;5.55;;;3.47;;
73893;SDS011;62699;50.534;12.784;2023-04-16T18:25:39;5.88;;;3.10;;
73893;SDS011;62699;50.534;12.784;2023-04-16T18:30:39;7.15;;;3.40;;
73893;SDS011;62699;50.534;12.784;2023-04-16T18:35:40;4.32;;;2.78;;
73893;SDS011;62699;50.534;12.784;2023-04-16T18:40:40;5.63;;;3.17;;
73893;SDS011;62699;50.534;12.784;2023-04-16T18:45:41;5.32;;;3.20;;
73893;SDS011;62699;50.534;12.784;2023-04-16T18:50:41;4.80;;;2.97;;
73893;SDS011;62699;50.534;12.784;2023-04-16T18:55:43;4.93;;;2.85;;
73893;SDS011;62699;50.534;12.784;2023-04-16T19:00:43;7.30;;;4.18;;
73893;SDS011;62699;50.534;12.784;2023-04-16T19:05:44;9.73;;;4.57;;
73893;SDS011;62699;50.534;12.784;2023-04-16T19:10:50;6.30;;;3.20;;
73893;SDS011;62699;50.534;12.784;2023-04-16T19:15:54;6.75;;;3.38;;
73893;SDS011;62699;50.534;12.784;2023-04-16T19:20:59;5.22;;;2.97;;
73893;SDS011;62699;50.534;12.784;2023-04-16T19:26:00;9.65;;;5.00;;
73893;SDS011;62699;50.534;12.784;2023-04-16T19:31:00;6.65;;;4.03;;
73893;SDS011;62699;50.534;12.784;2023-04-16T19:36:00;12.75;;;7.97;;
73893;SDS011;62699;50.534;12.784;2023-04-16T19:41:01;8.48;;;5.32;;
73893;SDS011;62699;50.534;12.784;2023-04-16T19:46:02;9.95;;;6.18;;
73893;SDS011;62699;50.534;12.784;2023-04-16T19:51:02;7.45;;;4.00;;
73893;SDS011;62699;50.534;12.784;2023-04-16T19:56:04;6.85;;;3.58;;
73893;SDS011;62699;50.534;12.784;2023-04-16T20:01:08;6.00;;;3.47;;
73893;SDS011;62699;50.534;12.784;2023-04-16T20:06:09;8.82;;;4.32;;
73893;SDS011;62699;50.534;12.784;2023-04-16T20:11:11;9.15;;;5.15;;
73893;SDS011;62699;50.534;12.784;2023-04-16T20:16:11;17.40;;;8.93;;
73893;SDS011;62699;50.534;12.784;2023-04-16T20:21:13;14.00;;;6.65;;
73893;SDS011;62699;50.534;12.784;2023-04-16T20:26:14;7.18;;;3.63;;
73893;SDS011;62699;50.534;12.784;2023-04-16T20:31:17;7.22;;;3.90;;
73893;SDS011;62699;50.534;12.784;2023-04-16T20:36:17;7.15;;;3.65;;
73893;SDS011;62699;50.534;12.784;2023-04-16T20:41:17;8.60;;;4.53;;
73893;SDS011;62699;50.534;12.784;2023-04-16T20:46:21;7.03;;;3.65;;
73893;SDS011;62699;50.534;12.784;2023-04-16T20:51:22;5.78;;;3.35;;
73893;SDS011;62699;50.534;12.784;2023-04-16T20:56:23;6.20;;;3.65;;
73893;SDS011;62699;50.534;12.784;2023-04-16T21:01:23;7.90;;;4.63;;
73893;SDS011;62699;50.534;12.784;2023-04-16T21:06:24;13.23;;;8.93;;
73893;SDS011;62699;50.534;12.784;2023-04-16T21:11:24;11.52;;;5.35;;
73893;SDS011;62699;50.534;12.784;2023-04-16T21:16:25;10.85;;;6.30;;
73893;SDS011;62699;50.534;12.784;2023-04-16T21:21:25;8.57;;;5.13;;
73893;SDS011;62699;50.534;12.784;2023-04-16T21:26:26;8.80;;;5.22;;
73893;SDS011;62699;50.534;12.784;2023-04-16T21:31:26;9.23;;;4.82;;
73893;SDS011;62699;50.534;12.784;2023-04-16T21:36:27;10.82;;;6.32;;
73893;SDS011;62699;50.534;12.784;2023-04-16T21:41:28;12.13;;;6.63;;
73893;SDS011;62699;50.534;12.784;2023-04-16T21:46:28;15.93;;;8.97;;
73893;SDS011;62699;50.534;12.784;2023-04-16T21:51:28;13.52;;;8.07;;
73893;SDS011;62699;50.534;12.784;2023-04-16T21:56:29;11.77;;;6.70;;
73893;SDS011;62699;50.534;12.784;2023-04-16T22:01:29;16.05;;;8.38;;
73893;SDS011;62699;50.534;12.784;2023-04-16T22:06:31;33.25;;;16.13;;
73893;SDS011;62699;50.534;12.784;2023-04-16T22:11:31;14.85;;;8.18;;
73893;SDS011;62699;50.534;12.784;2023-04-16T22:16:31;21.85;;;11.57;;
73893;SDS011;62699;50.534;12.784;2023-04-16T22:21:32;15.18;;;8.45;;
73893;SDS011;62699;50.534;12.784;2023-04-16T22:26:32;16.20;;;8.98;;
73893;SDS011;62699;50.534;12.784;2023-04-16T22:31:32;16.48;;;10.57;;
73893;SDS011;62699;50.534;12.784;2023-04-16T22:36:33;14.38;;;8.45;;
73893;SDS011;62699;50.534;12.784;2023-04-16T22:41:34;11.48;;;7.03;;
73893;SDS011;62699;50.534;12.784;2023-04-16T22:46:34;17.30;;;10.48;;
73893;SDS011;62699;50.534;12.784;2023-04-16T22:51:36;11.20;;;6.57;;
73893;SDS011;62699;50.534;12.784;2023-04-16T22:56:37;8.27;;;4.38;;
73893;SDS011;62699;50.534;12.784;2023-04-16T23:01:38;7.25;;;3.78;;
73893;SDS011;62699;50.534;12.784;2023-04-16T23:06:38;6.90;;;3.95;;
73893;SDS011;62699;50.534;12.784;2023-04-16T23:11:40;9.00;;;4.75;;
73893;SDS011;62699;50.534;12.784;2023-04-16T23:16:41;9.43;;;4.90;;
73893;SDS011;62699;50.534;12.784;2023-04-16T23:21:45;12.02;;;6.88;;
73893;SDS011;62699;50.534;12.784;2023-04-16T23:26:45;11.35;;;6.65;;
73893;SDS011;62699;50.534;12.784;2023-04-16T23:31:48;12.00;;;5.97;;
73893;SDS011;62699;50.534;12.784;2023-04-16T23:36:48;9.68;;;5.53;;
73893;SDS011;62699;50.534;12.784;2023-04-16T23:41:48;10.07;;;5.30;;
73893;SDS011;62699;50.534;12.784;2023-04-16T23:46:48;8.57;;;4.50;;
73893;SDS011;62699;50.534;12.784;2023-04-16T23:51:49;9.57;;;4.93;;
73893;SDS011;62699;50.534;12.784;2023-04-16T23:56:51;14.23;;;7.60;;
